Time;durP1;ratioP1;P1;durP2;ratioP2;P2;SDS_P1;SDS_P2;PMS_P1;PMS_P2;Temp;Humidity;BMP_temperature;BMP_pressure;BME280_temperature;BME280_humidity;BME280_pressure;Samples;Min_cycle;Max_cycle;Signal;HPM_P1;HPM_P2
2023/06/26 00:01:14;;;;;;;7.05;6.30;;;;;;;17.94;96.96;99680.41;5055191;28;20210;-80
2023/06/26 00:03:39;;;;;;;7.35;6.63;;;;;;;17.82;97.34;99670.81;5055057;28;20025;-79
2023/06/26 00:06:05;;;;;;;9.65;6.75;;;;;;;17.91;97.35;99685.94;5055606;28;20396;-80
2023/06/26 00:08:30;;;;;;;7.50;6.72;;;;;;;17.90;97.73;99681.59;5054854;28;20416;-79
2023/06/26 00:10:56;;;;;;;9.18;6.68;;;;;;;17.73;97.59;99668.84;5055033;28;20056;-79
2023/06/26 00:13:22;;;;;;;7.07;6.38;;;;;;;17.78;97.52;99678.13;5054668;28;20064;-79
2023/06/26 00:15:48;;;;;;;7.57;6.22;;;;;;;17.84;97.41;99684.72;5054862;28;20036;-79
2023/06/26 00:18:13;;;;;;;8.68;6.72;;;;;;;17.77;97.27;99675.59;5055319;28;20033;-79
2023/06/26 00:20:39;;;;;;;7.10;6.40;;;;;;;17.78;97.75;99674.63;5054936;28;20025;-79
2023/06/26 00:23:07;;;;;;;6.90;6.07;;;;;;;17.83;97.98;99676.00;5054726;28;20098;-79
2023/06/26 00:25:33;;;;;;;8.50;6.63;;;;;;;17.80;98.54;99681.47;5054238;28;20485;-79
2023/06/26 00:27:58;;;;;;;7.72;6.45;;;;;;;17.71;98.61;99653.19;5054405;28;20056;-79
2023/06/26 00:30:23;;;;;;;7.80;7.03;;;;;;;17.72;99.45;99654.84;5054710;28;20021;-80
2023/06/26 00:32:49;;;;;;;7.32;6.63;;;;;;;17.80;99.41;99663.03;5054479;28;20025;-81
2023/06/26 00:35:15;;;;;;;8.10;7.28;;;;;;;17.86;99.47;99664.34;5054378;28;20144;-79
2023/06/26 00:37:40;;;;;;;7.65;6.55;;;;;;;17.90;99.51;99676.34;5054088;28;20045;-79
2023/06/26 00:40:06;;;;;;;7.32;5.88;;;;;;;17.87;99.97;99666.06;5054297;28;20024;-79
2023/06/26 00:42:31;;;;;;;6.85;6.15;;;;;;;17.89;99.65;99669.41;5053840;28;20029;-79
2023/06/26 00:44:57;;;;;;;8.23;6.68;;;;;;;17.77;100.00;99651.91;5054591;28;20017;-79
2023/06/26 00:47:23;;;;;;;7.05;6.35;;;;;;;17.64;99.58;99629.09;5054343;28;20033;-79
2023/06/26 00:49:49;;;;;;;7.10;6.40;;;;;;;17.68;99.60;99651.59;5054305;28;20025;-78
2023/06/26 00:52:16;;;;;;;6.95;6.25;;;;;;;17.71;99.88;99643.47;5054127;28;20044;-79
2023/06/26 00:54:42;;;;;;;7.10;6.40;;;;;;;17.63;100.00;99635.31;5053731;28;20028;-80
2023/06/26 00:57:07;;;;;;;7.72;6.35;;;;;;;17.78;100.00;99664.09;5053823;28;20033;-78
2023/06/26 00:59:32;;;;;;;7.38;6.32;;;;;;;17.57;100.00;99630.53;5053943;28;20028;-78
2023/06/26 01:01:58;;;;;;;7.47;6.65;;;;;;;17.65;100.00;99643.09;5054231;28;20488;-79
2023/06/26 01:04:27;;;;;;;7.60;6.40;;;;;;;17.54;100.00;99632.56;5054213;28;20431;-79
2023/06/26 01:06:53;;;;;;;6.78;6.18;;;;;;;17.50;100.00;99636.38;5052917;28;20619;-79
2023/06/26 01:09:20;;;;;;;8.10;6.97;;;;;;;17.63;100.00;99652.91;5053641;28;20464;-79
2023/06/26 01:11:46;;;;;;;8.30;7.50;;;;;;;17.45;100.00;99631.44;5053326;28;20464;-79
2023/06/26 01:14:12;;;;;;;7.07;6.43;;;;;;;17.53;100.00;99650.16;5053791;28;20070;-79
2023/06/26 01:16:39;;;;;;;7.80;7.00;;;;;;;17.53;100.00;99655.41;5053540;28;20530;-79
2023/06/26 01:19:13;;;;;;;8.70;6.90;;;;;;;17.37;100.00;99623.28;5053655;28;20433;-79
2023/06/26 01:21:45;;;;;;;8.02;7.22;;;;;;;17.46;100.00;99651.56;5053357;28;20370;-79
2023/06/26 01:24:20;;;;;;;7.85;7.15;;;;;;;17.44;100.00;99650.81;5053424;28;20032;-79
2023/06/26 01:26:48;;;;;;;8.05;6.15;;;;;;;17.29;100.00;99628.28;5053221;28;20044;-80
2023/06/26 01:29:16;;;;;;;8.73;6.93;;;;;;;17.21;100.00;99620.97;5053556;28;20025;-79
2023/06/26 01:31:43;;;;;;;10.75;7.07;;;;;;;17.34;100.00;99650.66;5053045;28;20029;-79
2023/06/26 01:34:09;;;;;;;8.77;7.82;;;;;;;17.18;100.00;99629.91;5053142;28;20477;-79
2023/06/26 01:36:34;;;;;;;7.03;6.32;;;;;;;17.16;100.00;99625.72;5052911;28;20067;-79
2023/06/26 01:39:00;;;;;;;7.75;6.75;;;;;;;17.22;100.00;99641.06;5053333;28;20465;-79
2023/06/26 01:41:25;;;;;;;8.50;7.47;;;;;;;17.02;100.00;99604.84;5053126;28;20032;-79
2023/06/26 01:44:06;;;;;;;7.22;6.50;;;;;;;17.26;100.00;99653.03;5052926;28;20047;-79
2023/06/26 01:46:37;;;;;;;8.32;6.80;;;;;;;17.23;100.00;99644.53;5052933;28;20503;-79
2023/06/26 01:49:10;;;;;;;7.75;7.00;;;;;;;17.00;100.00;99610.22;5053192;28;20364;-79
2023/06/26 01:51:45;;;;;;;7.30;6.60;;;;;;;17.08;100.00;99617.56;5052871;28;20036;-79
2023/06/26 01:54:16;;;;;;;7.75;6.95;;;;;;;17.03;100.00;99622.34;5053472;28;20441;-79
2023/06/26 01:56:44;;;;;;;8.13;7.32;;;;;;;16.99;100.00;99610.34;5052485;28;20427;-79
2023/06/26 01:59:13;;;;;;;8.25;7.25;;;;;;;17.12;100.00;99637.44;5052791;28;20033;-79
2023/06/26 02:01:39;;;;;;;11.15;7.97;;;;;;;17.08;100.00;99634.19;5052697;28;20365;-79
2023/06/26 02:04:04;;;;;;;9.20;8.10;;;;;;;17.07;100.00;99631.69;5052877;28;20032;-79
2023/06/26 02:06:30;;;;;;;9.23;7.40;;;;;;;16.85;100.00;99596.41;5052803;28;20032;-79
2023/06/26 02:08:56;;;;;;;7.60;6.88;;;;;;;16.96;100.00;99628.03;5052438;28;20041;-79
2023/06/26 02:11:22;;;;;;;10.38;7.78;;;;;;;16.96;100.00;99620.13;5052771;28;20021;-79
2023/06/26 02:13:47;;;;;;;8.75;7.78;;;;;;;16.86;100.00;99603.38;5052440;28;20392;-79
2023/06/26 02:16:12;;;;;;;9.18;8.20;;;;;;;16.88;100.00;99614.59;5052499;28;20060;-79
2023/06/26 02:18:38;;;;;;;9.95;8.88;;;;;;;16.85;100.00;99614.81;5051482;28;20021;-79
2023/06/26 02:21:04;;;;;;;11.52;9.13;;;;;;;16.76;100.00;99609.41;5052760;28;20423;-79
2023/06/26 02:23:29;;;;;;;9.52;8.50;;;;;;;16.80;100.00;99624.84;5052556;28;20033;-79
2023/06/26 02:25:54;;;;;;;9.30;8.30;;;;;;;16.57;100.00;99594.94;5052213;28;20036;-79
2023/06/26 02:28:20;;;;;;;9.23;8.05;;;;;;;16.67;100.00;99609.06;5052447;28;20021;-79
2023/06/26 02:30:45;;;;;;;9.43;8.45;;;;;;;16.67;100.00;99611.69;5050694;28;20056;-79
2023/06/26 02:33:10;;;;;;;9.70;8.35;;;;;;;16.63;100.00;99607.63;5052556;28;20052;-79
2023/06/26 02:35:35;;;;;;;12.48;9.63;;;;;;;16.61;100.00;99612.16;5052346;28;20113;-79
2023/06/26 02:38:01;;;;;;;12.38;10.23;;;;;;;16.64;100.00;99625.09;5052208;28;20471;-79
2023/06/26 02:40:26;;;;;;;10.60;9.35;;;;;;;16.73;100.00;99631.50;5052276;28;20033;-79
2023/06/26 02:42:51;;;;;;;11.00;9.75;;;;;;;16.59;100.00;99603.53;5052183;28;20109;-79
2023/06/26 02:45:17;;;;;;;11.45;10.30;;;;;;;16.75;100.00;99628.75;5052123;28;20031;-79
2023/06/26 02:47:42;;;;;;;9.27;8.38;;;;;;;16.77;100.00;99635.59;5052145;28;20056;-79
2023/06/26 02:50:08;;;;;;;10.13;9.13;;;;;;;16.60;100.00;99607.00;5052386;28;20021;-79
2023/06/26 02:52:33;;;;;;;13.98;10.07;;;;;;;16.77;100.00;99630.34;5052102;28;20051;-79
2023/06/26 02:54:58;;;;;;;11.05;9.35;;;;;;;16.58;100.00;99606.28;5051674;28;20029;-79
2023/06/26 02:57:24;;;;;;;10.43;9.40;;;;;;;16.61;100.00;99611.31;5052037;28;20029;-79
2023/06/26 02:59:49;;;;;;;12.23;9.02;;;;;;;16.75;100.00;99624.34;5051639;28;20029;-79
2023/06/26 03:02:14;;;;;;;10.55;9.45;;;;;;;16.55;100.00;99594.19;5052061;28;20025;-79
2023/06/26 03:04:40;;;;;;;11.10;9.57;;;;;;;16.78;100.00;99631.19;5052063;28;20017;-79
2023/06/26 03:07:05;;;;;;;12.20;9.90;;;;;;;16.79;100.00;99630.22;5051845;28;20387;-79
2023/06/26 03:09:31;;;;;;;11.05;9.75;;;;;;;16.75;100.00;99626.13;5051910;28;20065;-79
2023/06/26 03:11:56;;;;;;;11.15;9.80;;;;;;;16.65;100.00;99610.16;5051953;28;20029;-79
2023/06/26 03:14:21;;;;;;;11.23;10.00;;;;;;;16.59;100.00;99593.00;5051733;28;20021;-79
2023/06/26 03:16:47;;;;;;;12.07;10.65;;;;;;;16.70;100.00;99614.13;5051364;28;20518;-79
2023/06/26 03:19:12;;;;;;;12.30;9.73;;;;;;;16.68;100.00;99604.66;5051906;28;20111;-79
2023/06/26 03:21:38;;;;;;;10.23;9.23;;;;;;;16.77;100.00;99611.06;5051573;28;20029;-79
2023/06/26 03:24:03;;;;;;;11.65;9.32;;;;;;;16.87;100.00;99615.56;5051522;28;20105;-79
2023/06/26 03:26:29;;;;;;;11.20;9.60;;;;;;;16.87;100.00;99620.81;5051786;28;20481;-79
2023/06/26 03:28:54;;;;;;;11.57;10.25;;;;;;;16.79;100.00;99596.03;5033406;28;20093;-79
2023/06/26 03:31:20;;;;;;;10.65;9.45;;;;;;;16.75;100.00;99590.16;5055519;28;20040;-79
2023/06/26 03:33:46;;;;;;;13.07;9.98;;;;;;;16.81;100.00;99589.72;5056328;28;20090;-79
2023/06/26 03:36:11;;;;;;;11.80;10.43;;;;;;;16.89;100.00;99594.38;5055308;28;20049;-79
2023/06/26 03:38:37;;;;;;;12.68;10.55;;;;;;;16.99;100.00;99607.72;5055767;28;20111;-79
2023/06/26 03:41:02;;;;;;;11.63;10.27;;;;;;;16.98;100.00;99609.53;5055212;28;20155;-79
2023/06/26 03:43:28;;;;;;;12.23;10.48;;;;;;;17.04;100.00;99609.06;5055681;28;20036;-79
2023/06/26 03:45:53;;;;;;;11.65;10.43;;;;;;;17.03;100.00;99598.66;5054732;28;20041;-79
2023/06/26 03:48:18;;;;;;;12.85;10.48;;;;;;;17.06;100.00;99593.97;5054994;28;20021;-79
2023/06/26 03:50:44;;;;;;;12.07;9.93;;;;;;;17.24;100.00;99612.00;5055177;28;20028;-79
2023/06/26 03:53:10;;;;;;;13.13;10.20;;;;;;;17.35;100.00;99614.66;5055379;28;20029;-79
2023/06/26 03:55:35;;;;;;;13.20;11.20;;;;;;;17.27;100.00;99590.69;5055418;28;20163;-79
2023/06/26 03:58:00;;;;;;;15.70;12.27;;;;;;;17.40;100.00;99591.44;5054938;28;20027;-79
2023/06/26 04:00:26;;;;;;;13.80;12.35;;;;;;;17.49;100.00;99576.75;5055053;28;20029;-79
2023/06/26 04:02:51;;;;;;;16.67;14.55;;;;;;;17.64;100.00;99591.38;5055096;28;20032;-79
2023/06/26 04:05:17;;;;;;;15.93;14.10;;;;;;;17.91;100.00;99620.06;5055211;28;20021;-79
2023/06/26 04:07:42;;;;;;;18.30;15.30;;;;;;;18.00;100.00;99602.72;5054925;28;20028;-79
2023/06/26 04:10:08;;;;;;;23.08;20.02;;;;;;;18.04;100.00;99573.34;5054720;28;20031;-79
2023/06/26 04:12:34;;;;;;;75.50;56.55;;;;;;;18.46;100.00;99594.63;5054996;28;20071;-79
2023/06/26 04:14:59;;;;;;;31.75;26.95;;;;;;;18.81;100.00;99602.34;5035679;28;20037;-79
2023/06/26 04:17:24;;;;;;;22.00;18.55;;;;;;;19.18;100.00;99596.69;5054681;28;20078;-80
2023/06/26 04:19:50;;;;;;;26.02;16.17;;;;;;;19.58;100.00;99588.88;5054696;28;20036;-79
2023/06/26 04:22:15;;;;;;;18.25;14.45;;;;;;;20.04;99.46;99600.81;5054893;28;20033;-80
2023/06/26 04:24:41;;;;;;;20.45;15.35;;;;;;;20.48;96.05;99606.72;5054749;28;20100;-80
2023/06/26 04:27:06;;;;;;;19.60;15.75;;;;;;;21.19;93.02;99601.19;5054497;28;20060;-80
2023/06/26 04:29:31;;;;;;;19.48;15.25;;;;;;;22.51;87.52;99612.72;5054512;28;20094;-80
2023/06/26 04:31:57;;;;;;;15.43;13.82;;;;;;;23.13;81.96;99540.13;5054685;28;20033;-80
2023/06/26 04:34:27;;;;;;;17.52;14.25;;;;;;;24.35;79.07;99601.16;5054533;28;20033;-80
2023/06/26 04:36:52;;;;;;;16.90;13.98;;;;;;;24.92;76.79;99583.69;5054228;28;20458;-80
2023/06/26 04:39:18;;;;;;;17.35;13.40;;;;;;;24.98;76.31;99599.00;5054630;28;20096;-80
2023/06/26 04:41:44;;;;;;;17.75;13.50;;;;;;;24.43;76.91;99565.75;5053321;28;20229;-80
2023/06/26 04:44:09;;;;;;;15.98;13.57;;;;;;;24.12;76.92;99571.63;5053966;28;20377;-80
2023/06/26 04:46:35;;;;;;;16.10;12.25;;;;;;;23.98;78.18;99579.41;5054396;28;20065;-80
2023/06/26 04:49:03;;;;;;;13.02;11.60;;;;;;;24.01;78.80;99571.06;5054058;28;20021;-80
2023/06/26 04:51:28;;;;;;;15.05;11.88;;;;;;;24.67;77.23;99580.97;5054102;28;20033;-80
2023/06/26 04:53:54;;;;;;;12.35;11.15;;;;;;;25.70;73.91;99585.81;5054030;28;20024;-80
2023/06/26 04:56:19;;;;;;;12.73;11.43;;;;;;;27.02;69.55;99577.84;5052742;28;20021;-81
2023/06/26 04:58:44;;;;;;;11.88;10.63;;;;;;;28.06;66.10;99586.91;5052563;28;20110;-81
2023/06/26 05:01:10;;;;;;;12.55;11.30;;;;;;;28.33;65.54;99587.25;5054056;28;20119;-81
2023/06/26 05:03:36;;;;;;;14.05;10.02;;;;;;;27.79;66.47;99580.34;5054128;28;20122;-81
2023/06/26 05:06:02;;;;;;;9.60;8.50;;;;;;;27.17;67.61;99566.41;5053726;28;20491;-81
2023/06/26 05:08:27;;;;;;;8.85;8.05;;;;;;;26.77;69.68;99569.19;5053708;28;20025;-81
2023/06/26 05:10:57;;;;;;;9.88;8.68;;;;;;;26.68;70.92;99585.47;5053570;28;20025;-81
2023/06/26 05:13:24;;;;;;;11.10;9.93;;;;;;;26.85;70.16;99587.84;5053916;28;20068;-81
2023/06/26 05:15:49;;;;;;;11.68;9.82;;;;;;;27.25;68.63;99567.16;5053614;28;20029;-81
2023/06/26 05:18:14;;;;;;;11.48;10.25;;;;;;;28.38;65.40;99574.16;5053726;28;20418;-81
2023/06/26 05:20:40;;;;;;;10.77;9.70;;;;;;;29.48;63.30;99587.16;5053514;28;20027;-81
2023/06/26 05:23:06;;;;;;;10.50;8.80;;;;;;;30.02;62.11;99583.00;5053524;28;20087;-81
2023/06/26 05:25:33;;;;;;;10.40;8.85;;;;;;;29.61;62.43;99574.91;5053485;28;20539;-81
2023/06/26 05:27:59;;;;;;;9.55;8.63;;;;;;;29.12;64.02;99591.81;5053108;28;20029;-81
2023/06/26 05:30:26;;;;;;;10.02;9.13;;;;;;;28.56;63.91;99573.72;5053708;28;20036;-81
2023/06/26 05:32:53;;;;;;;10.40;9.10;;;;;;;28.44;64.38;99594.81;5053287;28;20037;-81
2023/06/26 05:35:21;;;;;;;10.82;9.73;;;;;;;28.34;64.96;99580.88;5053490;28;20029;-81
2023/06/26 05:37:48;;;;;;;13.43;9.88;;;;;;;28.76;64.01;99588.16;5053023;28;20049;-81
2023/06/26 05:40:15;;;;;;;12.63;9.93;;;;;;;29.81;61.64;99589.28;5052987;28;20020;-81
2023/06/26 05:42:40;;;;;;;14.57;9.65;;;;;;;30.38;60.07;99572.00;5053468;28;20537;-81
2023/06/26 05:45:06;;;;;;;11.23;10.13;;;;;;;29.95;60.61;99574.91;5052904;28;20140;-81
2023/06/26 05:47:31;;;;;;;12.23;9.95;;;;;;;29.38;61.79;99575.97;5053118;28;20037;-81
2023/06/26 05:49:57;;;;;;;11.15;10.05;;;;;;;28.98;62.98;99582.84;5052656;28;20484;-81
2023/06/26 05:52:22;;;;;;;12.68;9.77;;;;;;;28.72;62.93;99581.53;5052862;28;20068;-81
2023/06/26 05:54:48;;;;;;;13.35;10.88;;;;;;;28.60;63.99;99580.34;5052947;28;20029;-81
2023/06/26 05:57:15;;;;;;;12.32;10.68;;;;;;;28.56;64.68;99593.31;5052631;28;20036;-81
2023/06/26 05:59:43;;;;;;;16.58;11.07;;;;;;;28.38;64.07;99565.28;5052855;28;20485;-82
2023/06/26 06:02:08;;;;;;;11.43;10.23;;;;;;;28.34;64.40;99559.44;5052714;28;20051;-82
2023/06/26 06:04:34;;;;;;;12.95;10.30;;;;;;;28.43;64.35;99576.25;5052683;28;20401;-82
2023/06/26 06:07:00;;;;;;;12.85;10.75;;;;;;;28.53;64.89;99574.94;5052215;28;20484;-82
2023/06/26 06:09:25;;;;;;;14.88;11.20;;;;;;;28.69;63.82;99570.34;5052882;28;20025;-81
2023/06/26 06:11:51;;;;;;;13.93;10.32;;;;;;;28.84;63.42;99571.13;5052308;28;20028;-82
2023/06/26 06:14:16;;;;;;;13.10;11.25;;;;;;;29.05;63.10;99568.47;5052091;28;20036;-82
2023/06/26 06:16:41;;;;;;;11.82;9.88;;;;;;;29.24;62.66;99569.66;5052579;28;20373;-81
2023/06/26 06:19:07;;;;;;;16.52;10.38;;;;;;;29.58;62.16;99590.38;5051020;28;20476;-82
2023/06/26 06:21:33;;;;;;;11.40;10.23;;;;;;;29.86;61.98;99588.69;5052472;28;20029;-82
2023/06/26 06:23:58;;;;;;;11.82;9.98;;;;;;;30.25;61.03;99588.06;5052054;28;20025;-82
2023/06/26 06:26:23;;;;;;;16.25;9.57;;;;;;;30.75;59.93;99591.38;5051054;28;20083;-82
2023/06/26 06:28:49;;;;;;;11.27;10.10;;;;;;;31.22;58.59;99568.84;5051265;28;20441;-82
2023/06/26 06:31:14;;;;;;;14.23;10.00;;;;;;;32.15;56.60;99573.28;5052154;28;20031;-82
2023/06/26 06:33:39;;;;;;;11.27;9.15;;;;;;;33.21;55.19;99578.09;5052310;28;20052;-82
2023/06/26 06:36:05;;;;;;;12.77;9.75;;;;;;;34.63;52.28;99578.00;5051662;28;20033;-82
2023/06/26 06:38:30;;;;;;;10.30;9.20;;;;;;;35.91;50.57;99593.63;5050926;28;20025;-82
2023/06/26 06:40:55;;;;;;;10.77;9.43;;;;;;;36.66;49.10;99573.72;5051741;28;20090;-82
2023/06/26 06:43:21;;;;;;;9.68;8.65;;;;;;;37.04;47.71;99590.38;5052210;28;20044;-82
2023/06/26 06:45:46;;;;;;;9.75;8.82;;;;;;;37.93;47.28;99572.22;5051971;28;20115;-82
2023/06/26 06:48:11;;;;;;;13.48;8.88;;;;;;;39.58;45.27;99583.63;5051744;28;20463;-82
2023/06/26 06:50:37;;;;;;;10.80;8.90;;;;;;;40.86;43.59;99579.47;5052052;28;20528;-82
2023/06/26 06:53:02;;;;;;;10.77;9.00;;;;;;;42.00;42.00;99590.00;5051930;28;20083;-82
2023/06/26 06:55:27;;;;;;;10.05;8.10;;;;;;;42.95;40.49;99572.47;5051658;28;20037;-82
2023/06/26 06:57:53;;;;;;;8.40;7.60;;;;;;;43.77;39.93;99589.78;5052005;28;20032;-82
2023/06/26 07:00:18;;;;;;;8.07;7.38;;;;;;;44.50;38.61;99591.34;5051743;28;20107;-82
2023/06/26 07:02:45;;;;;;;8.55;7.65;;;;;;;45.03;38.21;99582.84;5051842;28;20092;-82
2023/06/26 07:05:11;;;;;;;8.85;7.85;;;;;;;45.22;37.46;99577.28;5057397;28;20453;-82
2023/06/26 07:07:37;;;;;;;9.18;8.25;;;;;;;45.54;37.40;99572.84;5058164;28;20469;-82
2023/06/26 07:10:11;;;;;;;9.05;8.15;;;;;;;46.04;37.21;99564.69;5057893;28;20047;-82
2023/06/26 07:12:37;;;;;;;9.93;9.02;;;;;;;46.41;36.81;99580.13;5058696;28;20427;-82
2023/06/26 07:15:04;;;;;;;8.80;7.60;;;;;;;46.47;36.50;99567.84;5056771;28;20029;-82
2023/06/26 07:17:31;;;;;;;8.45;7.63;;;;;;;46.86;36.47;99563.66;5058423;28;20096;-82
2023/06/26 07:19:56;;;;;;;7.97;7.18;;;;;;;47.17;36.25;99573.91;5058417;28;20025;-82
2023/06/26 07:22:23;;;;;;;8.30;7.25;;;;;;;47.53;35.93;99564.66;5058282;28;20044;-82
2023/06/26 07:24:48;;;;;;;8.05;7.35;;;;;;;47.60;34.70;99552.03;5058523;28;20033;-82
2023/06/26 07:27:20;;;;;;;7.68;7.07;;;;;;;47.78;34.97;99571.44;5056795;28;20025;-82
2023/06/26 07:29:45;;;;;;;8.15;7.45;;;;;;;47.79;34.53;99556.50;5058192;28;20069;-82
2023/06/26 07:32:10;;;;;;;7.93;7.32;;;;;;;48.00;34.59;99563.06;5058301;28;20102;-82
2023/06/26 07:34:36;;;;;;;7.28;6.75;;;;;;;48.08;34.66;99553.97;5058088;28;20064;-82
2023/06/26 07:37:02;;;;;;;7.57;6.85;;;;;;;48.21;34.19;99554.94;5050236;28;20413;-82
2023/06/26 07:39:27;;;;;;;6.93;6.50;;;;;;;48.26;34.03;99541.00;5038018;28;20038;-82
2023/06/26 07:41:52;;;;;;;7.22;6.70;;;;;;;48.16;33.58;99544.06;5038330;28;20029;-82
2023/06/26 07:44:18;;;;;;;7.05;6.55;;;;;;;47.64;34.70;99549.44;5037935;28;20026;-82
2023/06/26 07:46:44;;;;;;;7.20;6.63;;;;;;;47.68;34.31;99554.03;5038218;28;20045;-82
2023/06/26 07:49:10;;;;;;;9.10;6.50;;;;;;;47.63;34.69;99542.31;5042635;28;20088;-82
2023/06/26 07:51:35;;;;;;;6.88;6.38;;;;;;;47.69;34.51;99544.63;5039597;28;20124;-82
2023/06/26 07:54:01;;;;;;;6.80;6.20;;;;;;;47.32;34.17;99548.69;5045953;28;20029;-82
2023/06/26 07:56:26;;;;;;;6.00;5.60;;;;;;;47.18;34.01;99542.44;5044643;28;20026;-82
2023/06/26 07:58:52;;;;;;;5.88;5.47;;;;;;;47.09;34.31;99544.34;5054906;28;20027;-82
2023/06/26 08:01:17;;;;;;;5.88;5.43;;;;;;;46.72;33.70;99554.63;5041167;28;20041;-82
2023/06/26 08:03:43;;;;;;;5.40;5.00;;;;;;;46.18;33.94;99554.50;5040506;28;20397;-82
2023/06/26 08:06:08;;;;;;;5.63;5.13;;;;;;;46.06;34.21;99553.38;5037805;28;20377;-82
2023/06/26 08:08:33;;;;;;;5.38;4.88;;;;;;;46.20;34.31;99530.22;5038207;28;20033;-82
2023/06/26 08:10:59;;;;;;;5.28;4.88;;;;;;;46.35;34.32;99547.50;5057176;28;20475;-82
2023/06/26 08:13:25;;;;;;;5.03;4.70;;;;;;;45.89;34.19;99554.81;5057823;28;20112;-82
2023/06/26 08:15:50;;;;;;;5.10;4.70;;;;;;;44.58;34.99;99543.94;5055897;28;20408;-82
2023/06/26 08:18:15;;;;;;;5.32;4.93;;;;;;;42.87;36.48;99534.75;5054537;28;20021;-81
2023/06/26 08:20:41;;;;;;;5.85;5.25;;;;;;;41.19;37.76;99525.38;5054675;28;20112;-81
2023/06/26 08:23:07;;;;;;;5.80;5.30;;;;;;;39.43;38.54;99513.47;5054316;28;20036;-81
2023/06/26 08:25:32;;;;;;;5.38;4.97;;;;;;;38.23;40.24;99526.59;5054799;28;20477;-81
2023/06/26 08:27:57;;;;;;;5.70;5.30;;;;;;;37.11;42.42;99534.84;5054744;28;20093;-81
2023/06/26 08:30:27;;;;;;;5.80;5.18;;;;;;;36.02;42.78;99518.75;5054622;28;20078;-81
2023/06/26 08:32:53;;;;;;;6.35;5.85;;;;;;;34.88;44.03;99504.78;5054626;28;20071;-81
2023/06/26 08:35:18;;;;;;;5.75;5.35;;;;;;;34.28;46.59;99499.44;5054203;28;20427;-81
2023/06/26 08:37:43;;;;;;;6.18;5.60;;;;;;;34.17;47.05;99515.38;5054268;28;20049;-80
2023/06/26 08:40:10;;;;;;;5.88;5.38;;;;;;;33.95;46.38;99488.00;5054287;28;20029;-80
2023/06/26 08:42:35;;;;;;;5.10;4.57;;;;;;;33.73;46.54;99490.34;5054503;28;20036;-80
2023/06/26 08:45:01;;;;;;;6.00;5.45;;;;;;;33.52;47.86;99497.03;5054596;28;20051;-81
2023/06/26 08:47:26;;;;;;;5.90;5.40;;;;;;;33.42;47.62;99512.06;5054654;28;20090;-80
2023/06/26 08:50:00;;;;;;;6.38;5.78;;;;;;;33.10;48.05;99482.47;5054163;28;20029;-80
2023/06/26 08:52:35;;;;;;;5.70;4.90;;;;;;;33.12;48.02;99501.13;5054193;28;20033;-80
2023/06/26 08:55:02;;;;;;;4.70;4.30;;;;;;;33.15;48.16;99514.19;5054357;28;20424;-80
2023/06/26 08:57:30;;;;;;;5.25;4.70;;;;;;;33.09;48.26;99504.31;5054077;28;20103;-80
2023/06/26 08:59:56;;;;;;;5.78;5.28;;;;;;;33.09;48.06;99515.09;5054089;28;20112;-80
2023/06/26 09:02:21;;;;;;;5.05;4.55;;;;;;;33.11;47.99;99508.41;5053905;28;20107;-80
2023/06/26 09:04:47;;;;;;;5.97;5.45;;;;;;;33.04;46.45;99502.25;5054526;28;20017;-80
2023/06/26 09:07:13;;;;;;;5.72;5.22;;;;;;;32.97;47.07;99499.63;5053808;28;20032;-81
2023/06/26 09:09:38;;;;;;;5.68;5.18;;;;;;;32.74;47.48;99499.34;5053909;28;20103;-80
2023/06/26 09:12:04;;;;;;;5.88;5.38;;;;;;;32.64;48.41;99513.31;5053662;28;20111;-80
2023/06/26 09:14:30;;;;;;;5.25;4.60;;;;;;;32.65;48.77;99495.28;5052471;28;20395;-81
2023/06/26 09:16:55;;;;;;;5.10;4.68;;;;;;;32.63;49.03;99494.69;5053429;28;20033;-80
2023/06/26 09:19:20;;;;;;;6.20;5.30;;;;;;;32.49;48.82;99502.03;5053337;28;20025;-80
2023/06/26 09:21:49;;;;;;;5.07;4.68;;;;;;;32.17;49.44;99475.03;5053686;28;20092;-80
2023/06/26 09:24:16;;;;;;;4.80;4.50;;;;;;;32.10;49.00;99479.63;5053618;28;20025;-80
2023/06/26 09:26:41;;;;;;;5.10;4.70;;;;;;;32.10;49.09;99493.09;5053282;28;20031;-80
2023/06/26 09:29:07;;;;;;;5.18;4.78;;;;;;;32.03;49.51;99487.75;5051916;28;20021;-80
2023/06/26 09:31:34;;;;;;;5.55;5.15;;;;;;;31.91;50.02;99472.47;5053356;28;20491;-80
2023/06/26 09:34:00;;;;;;;7.53;5.15;;;;;;;31.91;50.14;99470.59;5053481;28;20029;-80
2023/06/26 09:36:28;;;;;;;5.72;5.22;;;;;;;32.00;48.73;99485.47;5048599;28;20459;-80
2023/06/26 09:38:54;;;;;;;5.50;5.00;;;;;;;31.97;49.64;99477.81;5040742;28;20021;-80
2023/06/26 09:41:20;;;;;;;5.88;5.38;;;;;;;31.89;50.50;99469.97;5033033;28;20126;-80
2023/06/26 09:43:50;;;;;;;5.65;5.13;;;;;;;31.86;50.36;99470.44;5033218;28;20018;-80
2023/06/26 09:46:28;;;;;;;5.60;5.10;;;;;;;31.73;50.03;99456.97;5032924;28;20460;-80
2023/06/26 09:49:03;;;;;;;5.05;4.55;;;;;;;31.68;50.56;99483.72;5033549;28;20060;-80
2023/06/26 09:51:33;;;;;;;5.68;5.18;;;;;;;31.75;50.47;99471.06;5033192;28;20387;-80
2023/06/26 09:54:02;;;;;;;5.55;5.03;;;;;;;31.73;49.74;99463.22;5033230;28;20527;-80
2023/06/26 09:56:29;;;;;;;6.00;4.82;;;;;;;31.73;49.97;99456.97;5032674;28;20032;-80
2023/06/26 09:59:03;;;;;;;5.75;4.97;;;;;;;31.58;49.31;99465.31;5033108;28;20079;-80
2023/06/26 10:01:30;;;;;;;8.48;5.18;;;;;;;31.04;50.50;99444.91;5032822;28;20029;-80
2023/06/26 10:03:58;;;;;;;5.55;4.80;;;;;;;30.97;50.85;99447.63;5032905;28;20064;-80
2023/06/26 10:06:31;;;;;;;4.95;4.47;;;;;;;31.03;51.91;99445.97;5032685;28;20109;-80
2023/06/26 10:08:59;;;;;;;5.45;4.95;;;;;;;31.25;51.72;99473.44;5032745;28;20029;-80
2023/06/26 10:11:29;;;;;;;5.60;5.13;;;;;;;31.47;51.02;99474.88;5032471;28;20041;-80
2023/06/26 10:13:56;;;;;;;5.78;5.28;;;;;;;31.44;50.27;99466.41;5033008;28;20025;-80
2023/06/26 10:16:26;;;;;;;5.60;5.20;;;;;;;31.32;50.78;99439.31;5032496;28;20026;-80
2023/06/26 10:19:01;;;;;;;7.40;5.32;;;;;;;31.33;50.53;99437.44;5032637;28;20310;-80
2023/06/26 10:21:29;;;;;;;4.72;4.38;;;;;;;31.13;50.66;99427.53;5031125;28;20109;-80
2023/06/26 10:23:56;;;;;;;5.75;5.00;;;;;;;31.27;51.25;99455.25;5032867;28;20483;-80
2023/06/26 10:26:22;;;;;;;5.30;4.80;;;;;;;31.09;50.03;99433.53;5032506;28;20033;-80
2023/06/26 10:28:51;;;;;;;6.00;5.40;;;;;;;31.03;50.57;99437.91;5032580;28;20049;-80
2023/06/26 10:31:21;;;;;;;8.15;4.93;;;;;;;30.91;49.66;99426.94;5032183;28;20037;-80
2023/06/26 10:33:47;;;;;;;5.43;4.93;;;;;;;30.91;50.79;99436.88;5032510;28;20033;-80
2023/06/26 10:36:18;;;;;;;4.97;4.30;;;;;;;31.00;50.93;99449.06;5032004;28;20056;-80
2023/06/26 10:38:52;;;;;;;5.30;4.80;;;;;;;30.88;50.99;99426.53;5031679;28;20354;-80
2023/06/26 10:41:22;;;;;;;5.63;5.13;;;;;;;31.11;50.46;99451.13;5032140;28;20384;-80
2023/06/26 10:44:12;;;;;;;5.30;4.85;;;;;;;31.07;50.92;99444.50;5032345;28;20021;-80
2023/06/26 10:46:54;;;;;;;5.22;4.72;;;;;;;30.91;50.74;99418.88;5029645;28;20049;-80
2023/06/26 10:49:21;;;;;;;5.43;4.93;;;;;;;31.03;51.08;99443.28;5029695;28;20045;-80
2023/06/26 10:51:50;;;;;;;5.22;4.82;;;;;;;30.83;51.09;99445.16;5029791;28;20060;-80
2023/06/26 10:54:18;;;;;;;6.20;5.30;;;;;;;30.70;50.84;99441.41;5029569;28;20513;-80
2023/06/26 10:56:45;;;;;;;5.85;5.32;;;;;;;30.42;50.93;99441.56;5029498;28;20041;-80
2023/06/26 10:59:17;;;;;;;5.15;4.75;;;;;;;30.37;51.58;99446.75;5012862;28;20033;-80
2023/06/26 11:01:45;;;;;;;5.22;4.70;;;;;;;30.27;51.40;99433.72;5029515;28;20030;-80
2023/06/26 11:04:47;;;;;;;5.10;4.70;;;;;;;30.10;51.48;99419.00;5009607;28;20026;-80
2023/06/26 11:07:22;;;;;;;5.28;4.85;;;;;;;30.27;52.27;99441.78;5009488;28;20045;-80
2023/06/26 11:10:05;;;;;;;5.05;4.65;;;;;;;30.28;52.18;99421.94;5009813;28;20045;-80
2023/06/26 11:12:41;;;;;;;5.10;4.70;;;;;;;30.32;52.08;99420.50;5009539;28;20099;-80
2023/06/26 11:15:16;;;;;;;5.57;5.03;;;;;;;30.20;51.61;99403.31;5009803;28;20045;-80
2023/06/26 11:17:43;;;;;;;5.30;4.80;;;;;;;30.08;52.13;99426.41;5009616;28;20070;-80
2023/06/26 11:20:11;;;;;;;5.07;4.68;;;;;;;29.89;52.94;99406.53;5009766;28;20042;-80
2023/06/26 11:22:41;;;;;;;5.43;4.95;;;;;;;29.92;52.51;99394.56;5011369;28;20417;-80
2023/06/26 11:25:08;;;;;;;5.85;5.10;;;;;;;29.90;52.85;99410.06;5029357;28;20042;-80